Big Bear Station Historical Data
Daily Summary for June 4, 2017 Units:  English    Metric   Both
« Previous Day
Next Day »
Daily Weekly Monthly Yearly Custom
  High: Low: Average:
Temperature: 80.8 °F 47.7 °F 63.6 °F
Dew Point: 44.0 °F 30.6 °F 37.4 °F
Humidity: 76 % 24 % 41 %
Wind Speed: 10.9 mph 0.0 mph 2 mph
Wind Gust: -999.0 mph - -
Wind:- - SSW
Pressure: 30.20 in 30.16 in -
Precipitation: 0.00 in    
Historical Graphs
 
 
Tabular Data for June 4, 2017
Time Temperature Dew Point Pressure Wind Wind Speed Wind Gust Humidity Rainfall Rate (Hourly)
00:05 55.9 °F 30.6 °F 30.19 in Calm   -999.0 mph 38 % 0 in
00:20 55.8 °F 31.2 °F 30.19 in Calm   -999.0 mph 39 % 0 in
00:35 55.4 °F 31.5 °F 30.19 in South 2.2 mph -999.0 mph 40 % 0 in
00:51 55.0 °F 31.7 °F 30.19 in Calm   -999.0 mph 41 % 0 in
01:07 54.7 °F 30.8 °F 30.19 in Calm   -999.0 mph 40 % 0 in
01:22 54.3 °F 31.7 °F 30.19 in SSE 1.1 mph -999.0 mph 42 % 0 in
01:37 53.8 °F 32.9 °F 30.19 in South 1.7 mph -999.0 mph 45 % 0 in
01:52 53.2 °F 32.4 °F 30.18 in South 1.1 mph -999.0 mph 45 % 0 in
02:07 52.9 °F 32.7 °F 30.18 in Calm   -999.0 mph 46 % 0 in
02:23 52.5 °F 37.3 °F 30.17 in South 1.7 mph -999.0 mph 56 % 0 in
02:38 51.8 °F 35.2 °F 30.17 in Calm   -999.0 mph 53 % 0 in
02:53 51.3 °F 36.1 °F 30.17 in Calm   -999.0 mph 56 % 0 in
03:08 50.9 °F 38.3 °F 30.16 in Calm   -999.0 mph 62 % 0 in
03:23 50.7 °F 39.0 °F 30.16 in Calm   -999.0 mph 64 % 0 in
03:39 50.2 °F 38.1 °F 30.16 in Calm   -999.0 mph 63 % 0 in
03:54 49.6 °F 37.9 °F 30.16 in Calm   -999.0 mph 64 % 0 in
04:09 49.3 °F 36.0 °F 30.16 in SSE 1.7 mph -999.0 mph 60 % 0 in
04:24 48.4 °F 33.9 °F 30.16 in South 1.7 mph -999.0 mph 57 % 0 in
04:39 48.0 °F 35.6 °F 30.16 in South 1.1 mph -999.0 mph 62 % 0 in
04:55 48.0 °F 36.0 °F 30.16 in South 1.7 mph -999.0 mph 63 % 0 in
05:10 47.7 °F 36.5 °F 30.16 in Calm   -999.0 mph 65 % 0 in
05:25 47.7 °F 36.9 °F 30.16 in Calm   -999.0 mph 66 % 0 in
05:40 47.7 °F 38.4 °F 30.16 in Calm   -999.0 mph 70 % 0 in
05:55 47.8 °F 39.6 °F 30.16 in Calm   -999.0 mph 73 % 0 in
06:11 47.8 °F 39.9 °F 30.16 in Calm   -999.0 mph 74 % 0 in
06:26 48.0 °F 40.1 °F 30.17 in South 1.7 mph -999.0 mph 74 % 0 in
06:41 48.0 °F 39.8 °F 30.17 in Calm   -999.0 mph 73 % 0 in
06:56 48.6 °F 41.4 °F 30.17 in Calm   -999.0 mph 76 % 0 in
07:12 48.9 °F 41.7 °F 30.17 in Calm   -999.0 mph 76 % 0 in
07:27 50.4 °F 42.1 °F 30.17 in Calm   -999.0 mph 73 % 0 in
07:42 51.6 °F 42.5 °F 30.17 in Calm   -999.0 mph 71 % 0 in
07:57 53.2 °F 44.0 °F 30.18 in Calm   -999.0 mph 71 % 0 in
08:12 55.8 °F 43.8 °F 30.17 in Calm   -999.0 mph 64 % 0 in
08:28 59.2 °F 41.6 °F 30.18 in Calm   -999.0 mph 52 % 0 in
08:43 62.1 °F 38.1 °F 30.18 in Calm   -999.0 mph 41 % 0 in
08:58 64.8 °F 37.9 °F 30.19 in NW 4.2 mph -999.0 mph 37 % 0 in
09:14 66.9 °F 36.1 °F 30.19 in NNW 6.3 mph -999.0 mph 32 % 0 in
09:29 68.2 °F 37.2 °F 30.19 in NNW 4.7 mph -999.0 mph 32 % 0 in
09:44 69.1 °F 38.8 °F 30.19 in SSE 2.2 mph -999.0 mph 33 % 0 in
09:59 70.2 °F 39.7 °F 30.19 in Calm   -999.0 mph 33 % 0 in
10:15 70.7 °F 37.7 °F 30.19 in NNE 2.2 mph -999.0 mph 30 % 0 in
10:30 71.2 °F 38.2 °F 30.19 in ESE 1.7 mph -999.0 mph 30 % 0 in
10:45 72.0 °F 38.0 °F 30.19 in SW 6.3 mph -999.0 mph 29 % 0 in
11:01 73.0 °F 38.9 °F 30.19 in South 2.2 mph -999.0 mph 29 % 0 in
11:16 73.9 °F 37.8 °F 30.20 in South 4.7 mph -999.0 mph 27 % 0 in
11:31 74.5 °F 38.3 °F 30.20 in ESE 1.7 mph -999.0 mph 27 % 0 in
11:46 75.6 °F 38.3 °F 30.20 in WNW 3.2 mph -999.0 mph 26 % 0 in
12:01 77.2 °F 38.7 °F 30.20 in SW 6.8 mph -999.0 mph 25 % 0 in
12:17 77.4 °F 38.8 °F 30.20 in South 6.3 mph -999.0 mph 25 % 0 in
12:32 77.0 °F 39.5 °F 30.19 in SSW 4.2 mph -999.0 mph 26 % 0 in
12:47 77.9 °F 39.3 °F 30.20 in WSW 2.7 mph -999.0 mph 25 % 0 in
13:03 76.8 °F 38.3 °F 30.19 in West 4.2 mph -999.0 mph 25 % 0 in
13:18 78.3 °F 39.6 °F 30.19 in SW 4.7 mph -999.0 mph 25 % 0 in
13:33 77.5 °F 38.9 °F 30.19 in South 3.7 mph -999.0 mph 25 % 0 in
13:48 79.5 °F 40.6 °F 30.19 in West 2.2 mph -999.0 mph 25 % 0 in
14:04 76.6 °F 39.2 °F 30.19 in South 10.4 mph -999.0 mph 26 % 0 in
14:20 77.9 °F 39.3 °F 30.19 in SSE 4.7 mph -999.0 mph 25 % 0 in
14:35 76.1 °F 39.7 °F 30.19 in SSW 3.7 mph -999.0 mph 27 % 0 in
14:50 79.3 °F 40.4 °F 30.19 in NE 3.2 mph -999.0 mph 25 % 0 in
15:05 77.4 °F 40.8 °F 30.19 in ENE 2.2 mph -999.0 mph 27 % 0 in
15:21 77.2 °F 39.7 °F 30.18 in East 6.3 mph -999.0 mph 26 % 0 in
15:36 76.5 °F 40.0 °F 30.18 in South 6.8 mph -999.0 mph 27 % 0 in
15:51 78.1 °F 41.4 °F 30.17 in West 6.3 mph -999.0 mph 27 % 0 in
16:06 77.5 °F 39.9 °F 30.17 in SW 2.2 mph -999.0 mph 26 % 0 in
16:21 76.8 °F 41.2 °F 30.17 in North 2.7 mph -999.0 mph 28 % 0 in
16:37 77.9 °F 41.2 °F 30.16 in NNE 2.2 mph -999.0 mph 27 % 0 in
16:52 78.1 °F 40.4 °F 30.16 in NW 3.7 mph -999.0 mph 26 % 0 in
17:07 79.5 °F 40.6 °F 30.16 in SSW 3.2 mph -999.0 mph 25 % 0 in
17:23 80.2 °F 40.1 °F 30.16 in West 2.7 mph -999.0 mph 24 % 0 in
17:38 80.8 °F 40.6 °F 30.16 in NNW 10.9 mph -999.0 mph 24 % 0 in
17:53 80.8 °F 40.6 °F 30.16 in WNW 1.1 mph -999.0 mph 24 % 0 in
18:09 79.7 °F 40.8 °F 30.16 in SSE 1.1 mph -999.0 mph 25 % 0 in
18:24 79.2 °F 41.4 °F 30.16 in East 3.2 mph -999.0 mph 26 % 0 in
18:39 76.6 °F 39.2 °F 30.16 in WNW 1.1 mph -999.0 mph 26 % 0 in
18:55 73.9 °F 36.9 °F 30.16 in WSW 1.1 mph -999.0 mph 26 % 0 in
19:10 72.7 °F 33.8 °F 30.16 in South 3.7 mph -999.0 mph 24 % 0 in
19:25 69.1 °F 34.6 °F 30.16 in WNW 2.2 mph -999.0 mph 28 % 0 in
19:40 66.0 °F 36.8 °F 30.16 in Calm   -999.0 mph 34 % 0 in
19:56 64.6 °F 37.0 °F 30.16 in Calm   -999.0 mph 36 % 0 in
20:11 63.0 °F 36.3 °F 30.17 in Calm   -999.0 mph 37 % 0 in
20:26 60.8 °F 37.6 °F 30.17 in Calm   -999.0 mph 42 % 0 in
20:41 59.0 °F 36.5 °F 30.17 in SSW 1.1 mph -999.0 mph 43 % 0 in
20:56 57.9 °F 33.7 °F 30.17 in Calm   -999.0 mph 40 % 0 in
21:12 57.7 °F 31.6 °F 30.17 in ENE 2.2 mph -999.0 mph 37 % 0 in
21:27 57.9 °F 31.8 °F 30.17 in Calm   -999.0 mph 37 % 0 in
21:42 57.6 °F 31.5 °F 30.17 in SE 1.1 mph -999.0 mph 37 % 0 in
21:57 57.0 °F 32.9 °F 30.17 in SSE 1.1 mph -999.0 mph 40 % 0 in
22:13 56.5 °F 32.5 °F 30.18 in Calm   -999.0 mph 40 % 0 in
22:28 56.5 °F 33.1 °F 30.17 in South 1.7 mph -999.0 mph 41 % 0 in
22:43 56.7 °F 33.9 °F 30.16 in SSE 2.7 mph -999.0 mph 42 % 0 in
22:58 57.0 °F 34.1 °F 30.16 in ESE 2.2 mph -999.0 mph 42 % 0 in
23:13 57.2 °F 33.1 °F 30.16 in Calm   -999.0 mph 40 % 0 in
23:29 57.4 °F 32.6 °F 30.16 in Calm   -999.0 mph 39 % 0 in
23:44 57.7 °F 34.8 °F 30.16 in Calm   -999.0 mph 42 % 0 in
23:59 57.9 °F 34.9 °F 30.16 in SSE 1.1 mph -999.0 mph 42 % 0 in
Big Bear CA Weather
Compliments of Weather Underground - 1.5 mb